Time;durP1;ratioP1;P1;durP2;ratioP2;P2;SDS_P1;SDS_P2;PMS_P1;PMS_P2;Temp;Humidity;BMP_temperature;BMP_pressure;BME280_temperature;BME280_humidity;BME280_pressure;Samples;Min_cycle;Max_cycle;Signal;HPM_P1;HPM_P2
2023/08/17 00:03:53;;;;;;;2.80;2.60;;;27.10;63.40;;;;;;221668;1267;22800;-58
2023/08/17 00:08:56;;;;;;;4.10;3.20;;;27.10;62.90;;;;;;221908;1264;22678;-57
2023/08/17 00:13:59;;;;;;;3.60;3.10;;;27.10;63.10;;;;;;221944;1257;22514;-57
2023/08/17 00:19:03;;;;;;;4.70;3.20;;;27.00;62.90;;;;;;223375;1264;22531;-58
2023/08/17 00:24:06;;;;;;;3.50;3.10;;;27.00;63.10;;;;;;222005;1260;22653;-57
2023/08/17 00:29:09;;;;;;;4.30;3.30;;;26.70;64.30;;;;;;221863;1257;22516;-57
2023/08/17 00:34:12;;;;;;;3.60;3.30;;;26.70;64.90;;;;;;221746;1257;22541;-58
2023/08/17 00:39:15;;;;;;;4.80;3.70;;;26.50;66.00;;;;;;221944;1256;24193;-58
2023/08/17 00:44:21;;;;;;;3.40;2.80;;;26.40;67.10;;;;;;221989;1264;22556;-58
2023/08/17 00:49:24;;;;;;;2.80;2.60;;;26.30;67.70;;;;;;222038;1258;22565;-58
2023/08/17 00:54:29;;;;;;;3.60;3.00;;;26.30;68.20;;;;;;221903;1264;22598;-59
2023/08/17 00:59:32;;;;;;;5.10;2.80;;;26.20;69.30;;;;;;221767;1257;24260;-58
2023/08/17 01:04:39;;;;;;;2.70;2.50;;;25.40;69.60;;;;;;221879;1258;24223;-58
2023/08/17 01:09:42;;;;;;;4.50;3.20;;;25.60;68.40;;;;;;222016;1269;23026;-57
2023/08/17 01:15:01;;;;;;;4.10;2.90;;;25.70;68.00;;;;;;222314;1264;24327;-58
2023/08/17 01:20:09;;;;;;;3.20;2.80;;;26.00;66.70;;;;;;222309;1267;22530;-59
2023/08/17 01:25:11;;;;;;;3.50;3.00;;;26.20;66.10;;;;;;221933;1264;22544;-58
2023/08/17 01:30:17;;;;;;;5.10;2.70;;;26.20;66.70;;;;;;222121;1263;23945;-56
2023/08/17 01:35:42;;;;;;;3.80;3.30;;;26.00;66.60;;;;;;222058;1264;22550;-58
2023/08/17 01:40:49;;;;;;;3.70;2.90;;;25.80;67.20;;;;;;222108;1261;25858;-57
2023/08/17 01:45:52;;;;;;;4.00;2.60;;;25.60;67.10;;;;;;221862;1266;25525;-58
2023/08/17 01:50:55;;;;;;;3.70;2.60;;;25.50;67.50;;;;;;222063;1263;22566;-57
2023/08/17 01:55:58;;;;;;;3.40;2.50;;;25.40;67.60;;;;;;221927;1259;23939;-58
2023/08/17 02:01:01;;;;;;;4.10;2.60;;;25.40;67.50;;;;;;221974;1259;22534;-57
2023/08/17 02:06:04;;;;;;;2.60;2.20;;;25.40;67.20;;;;;;222122;1259;22519;-58
2023/08/17 02:11:09;;;;;;;3.50;2.00;;;25.50;66.60;;;;;;222137;1269;22655;-60
2023/08/17 02:16:14;;;;;;;2.50;2.20;;;25.60;66.40;;;;;;222149;1255;23647;-58
2023/08/17 02:21:16;;;;;;;2.10;2.00;;;25.60;66.20;;;;;;221971;1262;22539;-58
2023/08/17 02:26:19;;;;;;;3.00;2.50;;;25.40;66.00;;;;;;221839;1255;22747;-57
2023/08/17 02:31:22;;;;;;;2.20;2.00;;;25.40;65.90;;;;;;222180;1264;22753;-58
2023/08/17 02:36:25;;;;;;;3.30;2.10;;;25.40;65.80;;;;;;222066;1256;22738;-57
2023/08/17 02:41:30;;;;;;;4.10;2.30;;;25.50;65.80;;;;;;221994;1263;22544;-57
2023/08/17 02:46:33;;;;;;;2.70;2.10;;;25.50;65.80;;;;;;222115;1263;24283;-57
2023/08/17 02:51:35;;;;;;;4.20;2.30;;;25.50;65.70;;;;;;221845;1266;22534;-58
2023/08/17 02:56:38;;;;;;;2.30;2.00;;;25.50;65.90;;;;;;222212;1264;22553;-56
2023/08/17 03:01:44;;;;;;;2.70;2.20;;;25.50;66.00;;;;;;221937;1263;25290;-58
2023/08/17 03:06:48;;;;;;;3.70;2.40;;;25.50;66.30;;;;;;222127;1263;24082;-60
2023/08/17 03:11:51;;;;;;;3.30;1.90;;;25.50;66.60;;;;;;221666;1256;22523;-59
2023/08/17 03:16:54;;;;;;;2.70;2.40;;;25.50;66.50;;;;;;222110;1266;24977;-57
2023/08/17 03:21:57;;;;;;;4.50;1.70;;;25.50;66.20;;;;;;221796;1260;24309;-59
2023/08/17 03:27:00;;;;;;;2.30;2.10;;;25.60;65.80;;;;;;222010;1264;201875;-57
2023/08/17 03:32:04;;;;;;;2.20;2.00;;;25.60;65.70;;;;;;221676;1255;25401;-60
2023/08/17 03:37:06;;;;;;;1.90;1.80;;;25.60;66.00;;;;;;221945;1271;24231;-59
2023/08/17 03:42:16;;;;;;;4.00;1.80;;;25.70;65.50;;;;;;222065;1266;23136;-57
2023/08/17 03:47:19;;;;;;;2.20;2.00;;;25.70;65.40;;;;;;225991;1264;22527;-56
2023/08/17 03:52:22;;;;;;;4.00;2.40;;;25.80;65.40;;;;;;221268;1255;24406;-57
2023/08/17 03:57:24;;;;;;;3.60;2.10;;;25.90;64.90;;;;;;221867;1267;22651;-56
2023/08/17 04:02:28;;;;;;;2.40;1.90;;;26.00;65.10;;;;;;221703;1271;24252;-58
2023/08/17 04:07:31;;;;;;;2.50;2.00;;;26.00;64.80;;;;;;221856;1267;22531;-59
2023/08/17 04:12:34;;;;;;;2.00;1.80;;;25.90;65.20;;;;;;221892;1264;22554;-58
2023/08/17 04:17:36;;;;;;;2.90;1.90;;;26.00;64.90;;;;;;222092;1267;22573;-58
2023/08/17 04:22:39;;;;;;;2.30;2.20;;;26.00;64.90;;;;;;221735;1259;22524;-58
2023/08/17 04:27:42;;;;;;;2.60;2.40;;;25.90;64.90;;;;;;221805;1256;24210;-57
2023/08/17 04:32:51;;;;;;;4.70;1.90;;;26.00;64.90;;;;;;221786;1255;24201;-58
2023/08/17 04:37:55;;;;;;;4.80;2.00;;;26.00;65.10;;;;;;221931;1260;22517;-58
2023/08/17 04:42:58;;;;;;;2.10;2.00;;;26.00;65.30;;;;;;221918;1264;22524;-59
2023/08/17 04:48:02;;;;;;;1.90;1.80;;;26.00;65.10;;;;;;221739;1260;22516;-60
2023/08/17 04:53:05;;;;;;;3.30;2.00;;;26.00;65.20;;;;;;221832;1268;25402;-58
2023/08/17 04:58:10;;;;;;;2.20;2.00;;;26.00;65.10;;;;;;222116;1266;23156;-58
2023/08/17 05:03:13;;;;;;;2.20;2.00;;;26.00;65.30;;;;;;222064;1263;24594;-58
2023/08/17 05:08:27;;;;;;;3.00;2.40;;;26.10;65.50;;;;;;222020;1263;22523;-60
2023/08/17 05:13:30;;;;;;;2.80;2.10;;;26.00;66.00;;;;;;221938;1248;25712;-57
2023/08/17 05:18:35;;;;;;;4.80;3.20;;;26.00;65.90;;;;;;221855;1265;24230;-58
2023/08/17 05:23:38;;;;;;;4.30;3.00;;;25.90;66.20;;;;;;222024;1267;25336;-59
2023/08/17 05:28:42;;;;;;;4.70;2.80;;;26.00;66.00;;;;;;221770;1268;22715;-58
2023/08/17 05:33:45;;;;;;;2.70;2.50;;;26.00;66.30;;;;;;221839;1271;23934;-58
2023/08/17 05:38:48;;;;;;;4.30;2.90;;;26.00;66.20;;;;;;221905;1264;22585;-58
2023/08/17 05:43:51;;;;;;;5.90;2.80;;;26.00;65.90;;;;;;221689;1259;24169;-58
2023/08/17 05:48:54;;;;;;;2.70;2.50;;;26.00;65.50;;;;;;221753;1258;22517;-59
2023/08/17 05:53:57;;;;;;;2.30;2.10;;;26.00;65.30;;;;;;221747;1267;23904;-59
2023/08/17 05:59:00;;;;;;;2.20;2.00;;;26.00;65.10;;;;;;221772;1266;22664;-58
2023/08/17 06:04:04;;;;;;;4.60;2.50;;;26.00;65.10;;;;;;221816;1255;22601;-58
2023/08/17 06:09:09;;;;;;;3.40;2.40;;;26.00;64.70;;;;;;221989;1270;22743;-58
2023/08/17 06:14:12;;;;;;;2.30;2.10;;;26.10;64.90;;;;;;221985;1270;22636;-59
2023/08/17 06:19:15;;;;;;;2.70;2.10;;;26.10;65.10;;;;;;221698;1256;24004;-56
2023/08/17 06:24:20;;;;;;;3.50;2.40;;;26.10;64.90;;;;;;221416;1263;24210;-58
2023/08/17 06:29:26;;;;;;;4.80;2.80;;;26.20;64.70;;;;;;221794;1267;22531;-58
2023/08/17 06:34:29;;;;;;;3.70;2.50;;;26.00;65.60;;;;;;222027;1267;23899;-57
2023/08/17 06:39:32;;;;;;;3.00;2.40;;;25.90;65.80;;;;;;221752;1270;22528;-58
2023/08/17 06:44:35;;;;;;;3.80;2.00;;;25.90;66.00;;;;;;221749;1264;22520;-58
2023/08/17 06:49:38;;;;;;;4.30;2.30;;;25.80;66.70;;;;;;221694;1264;24066;-59
2023/08/17 06:54:41;;;;;;;4.10;2.30;;;25.70;66.90;;;;;;221445;1263;25157;-56
2023/08/17 06:59:45;;;;;;;3.80;2.50;;;25.30;68.20;;;;;;221471;1271;22524;-57
2023/08/17 07:04:48;;;;;;;6.60;2.50;;;24.90;69.00;;;;;;222380;1264;22517;-57
2023/08/17 07:09:51;;;;;;;2.60;2.30;;;24.90;69.80;;;;;;221800;1268;22884;-51
2023/08/17 07:14:54;;;;;;;7.00;2.70;;;24.80;69.60;;;;;;221720;1265;22537;-50
2023/08/17 07:19:57;;;;;;;6.90;2.90;;;24.50;71.00;;;;;;221672;1264;25457;-52
2023/08/17 07:25:09;;;;;;;8.40;3.90;;;24.40;72.20;;;;;;221886;1265;24485;-52
2023/08/17 07:30:14;;;;;;;4.80;2.60;;;24.50;71.50;;;;;;221735;1264;22519;-52
2023/08/17 07:35:17;;;;;;;5.20;2.60;;;24.50;71.30;;;;;;221801;1249;22521;-52
2023/08/17 07:40:20;;;;;;;3.50;2.80;;;24.50;72.30;;;;;;221721;1271;24143;-52
2023/08/17 07:45:22;;;;;;;11.10;2.80;;;24.70;72.20;;;;;;221553;1269;25419;-55
2023/08/17 07:50:28;;;;;;;6.60;2.90;;;24.70;70.80;;;;;;221604;1265;23897;-58
2023/08/17 07:55:31;;;;;;;3.00;2.20;;;24.50;71.00;;;;;;221884;1255;22517;-58
2023/08/17 08:00:34;;;;;;;4.20;2.70;;;24.50;71.90;;;;;;221546;1264;22949;-59
2023/08/17 08:05:36;;;;;;;5.30;2.80;;;24.50;70.80;;;;;;222158;1269;22521;-60
2023/08/17 08:10:40;;;;;;;3.40;2.80;;;24.70;70.30;;;;;;221757;1265;22596;-59
2023/08/17 08:15:43;;;;;;;3.70;2.80;;;24.80;70.20;;;;;;221894;1255;25565;-60
2023/08/17 08:20:45;;;;;;;3.00;2.80;;;24.80;70.50;;;;;;221860;1264;24164;-57
2023/08/17 08:25:48;;;;;;;4.00;2.80;;;24.90;68.90;;;;;;221805;1261;23071;-51
2023/08/17 08:30:52;;;;;;;7.60;3.00;;;24.90;68.50;;;;;;221745;1264;22804;-56
2023/08/17 08:35:55;;;;;;;3.40;2.60;;;25.00;69.00;;;;;;221772;1255;25366;-57
2023/08/17 08:40:58;;;;;;;3.80;2.60;;;25.10;69.50;;;;;;221387;1264;22636;-56
2023/08/17 08:46:01;;;;;;;4.40;2.80;;;25.10;68.90;;;;;;221986;1267;22521;-57
2023/08/17 08:51:08;;;;;;;3.10;2.80;;;25.10;68.10;;;;;;221821;1265;22504;-58
2023/08/17 08:56:12;;;;;;;3.80;2.80;;;25.40;67.50;;;;;;221641;1266;22519;-57
2023/08/17 09:01:16;;;;;;;3.60;2.30;;;25.70;67.30;;;;;;221842;1256;22542;-56
2023/08/17 09:06:21;;;;;;;2.90;2.50;;;26.00;66.70;;;;;;221857;1268;22547;-58
2023/08/17 09:11:24;;;;;;;5.20;2.70;;;25.90;66.00;;;;;;221486;1270;24250;-65
2023/08/17 09:16:27;;;;;;;3.60;3.20;;;25.70;67.10;;;;;;222019;1256;22635;-66
2023/08/17 09:21:32;;;;;;;4.10;2.50;;;25.80;66.70;;;;;;221894;1267;26429;-57
2023/08/17 09:26:36;;;;;;;3.40;2.70;;;25.80;66.30;;;;;;221916;1267;22514;-57
2023/08/17 09:31:39;;;;;;;3.30;2.60;;;25.90;66.60;;;;;;221816;1265;22727;-56
2023/08/17 09:36:45;;;;;;;7.50;2.80;;;25.90;67.20;;;;;;221946;1264;22527;-56
2023/08/17 09:41:48;;;;;;;4.70;3.30;;;26.00;67.70;;;;;;221595;1268;25282;-57
2023/08/17 09:46:51;;;;;;;4.30;3.00;;;26.00;67.10;;;;;;221940;1270;25471;-58
2023/08/17 09:51:53;;;;;;;4.00;2.50;;;26.20;66.80;;;;;;221593;1256;22657;-58
2023/08/17 09:56:58;;;;;;;5.10;3.50;;;26.50;66.40;;;;;;221601;1267;24221;-59
2023/08/17 10:02:01;;;;;;;3.30;2.90;;;26.70;65.90;;;;;;221850;1254;25517;-58
2023/08/17 10:07:06;;;;;;;4.50;3.20;;;26.90;65.60;;;;;;221613;1264;25165;-57
2023/08/17 10:12:12;;;;;;;6.80;3.10;;;27.00;65.70;;;;;;221558;1266;22533;-60
2023/08/17 10:17:22;;;;;;;5.00;3.20;;;27.00;65.50;;;;;;221821;1271;22647;-60
2023/08/17 10:22:42;;;;;;;5.20;3.10;;;27.10;65.50;;;;;;221998;1263;22537;-61
2023/08/17 10:27:46;;;;;;;4.30;3.10;;;27.20;65.50;;;;;;221753;1255;24077;-57
2023/08/17 10:32:49;;;;;;;5.00;3.50;;;27.10;65.90;;;;;;221665;1267;23757;-57
2023/08/17 10:37:53;;;;;;;5.00;3.80;;;27.20;65.50;;;;;;221678;1256;25412;-61
2023/08/17 10:42:57;;;;;;;5.50;3.20;;;27.30;65.60;;;;;;221445;1259;24210;-58
2023/08/17 10:48:27;;;;;;;3.80;3.10;;;27.40;65.60;;;;;;221659;1270;24748;-57
2023/08/17 10:53:38;;;;;;;3.50;3.10;;;27.70;64.40;;;;;;221579;1265;22523;-57
2023/08/17 10:58:42;;;;;;;;;;;27.70;64.70;;;;;;221455;1263;22494;-57
2023/08/17 11:03:45;;;;;;;3.60;3.30;;;27.90;64.60;;;;;;221571;1263;25943;-59
2023/08/17 11:08:54;;;;;;;4.40;2.90;;;27.80;64.10;;;;;;221365;1265;22589;-57
2023/08/17 11:13:57;;;;;;;7.50;3.80;;;27.80;63.90;;;;;;221812;1264;22529;-59
2023/08/17 11:19:01;;;;;;;3.40;3.10;;;27.90;63.60;;;;;;221398;1269;22640;-58
2023/08/17 11:24:09;;;;;;;7.60;4.20;;;27.90;63.60;;;;;;221826;1266;24218;-59
2023/08/17 11:29:11;;;;;;;4.30;3.90;;;27.90;63.80;;;;;;221654;1265;25298;-59
2023/08/17 11:34:15;;;;;;;7.20;3.10;;;27.90;63.50;;;;;;221415;1269;23123;-58
2023/08/17 11:39:20;;;;;;;8.80;3.70;;;28.20;63.50;;;;;;221630;1263;22521;-57
2023/08/17 11:44:25;;;;;;;5.60;3.60;;;28.20;63.40;;;;;;221878;1268;22660;-58
2023/08/17 11:49:30;;;;;;;6.20;3.80;;;28.20;63.50;;;;;;221845;1263;24239;-58
2023/08/17 11:54:41;;;;;;;4.60;4.10;;;28.40;63.20;;;;;;221904;1269;22543;-59
2023/08/17 11:59:44;;;;;;;4.60;4.20;;;28.40;62.80;;;;;;222158;1269;25368;-57
2023/08/17 12:04:47;;;;;;;5.10;3.80;;;28.40;63.30;;;;;;221718;1265;23940;-59
2023/08/17 12:09:51;;;;;;;5.50;4.50;;;28.50;62.30;;;;;;221947;1266;22515;-57
2023/08/17 12:14:54;;;;;;;7.60;5.80;;;28.70;62.30;;;;;;221728;1269;22612;-56
2023/08/17 12:19:58;;;;;;;5.80;5.30;;;28.70;62.90;;;;;;221533;1265;22750;-58
2023/08/17 12:25:03;;;;;;;8.50;4.70;;;28.80;63.40;;;;;;221900;1262;22517;-63
2023/08/17 12:30:27;;;;;;;5.40;4.90;;;29.00;62.40;;;;;;222005;1270;22535;-59
2023/08/17 12:35:31;;;;;;;8.20;5.10;;;29.00;62.00;;;;;;221814;1264;22521;-59
2023/08/17 12:40:34;;;;;;;8.50;4.90;;;29.20;61.60;;;;;;222127;1268;22531;-60
2023/08/17 12:45:37;;;;;;;5.10;4.70;;;29.20;62.70;;;;;;221685;1269;22533;-60
2023/08/17 12:50:39;;;;;;;4.20;3.90;;;28.90;62.40;;;;;;221428;1267;22521;-61
2023/08/17 12:55:46;;;;;;;8.00;4.30;;;28.50;63.60;;;;;;222850;1256;24057;-60
2023/08/17 13:00:54;;;;;;;8.10;5.00;;;28.50;63.40;;;;;;221674;1263;23002;-57
2023/08/17 13:05:57;;;;;;;4.70;4.40;;;28.50;63.20;;;;;;221732;1263;22543;-57
2023/08/17 13:11:00;;;;;;;5.70;4.70;;;28.60;61.80;;;;;;221637;1263;23968;-59
2023/08/17 13:16:03;;;;;;;5.90;4.70;;;28.60;61.30;;;;;;221583;1270;22527;-59
2023/08/17 13:21:08;;;;;;;6.30;5.70;;;28.60;61.80;;;;;;221429;1252;23833;-64
2023/08/17 13:26:14;;;;;;;8.10;4.30;;;28.70;61.90;;;;;;223015;1267;22782;-57
2023/08/17 13:31:17;;;;;;;5.10;4.70;;;28.30;61.90;;;;;;222242;1267;25314;-57
2023/08/17 13:36:28;;;;;;;6.70;4.50;;;28.70;61.10;;;;;;221228;1265;22570;-57
2023/08/17 13:41:30;;;;;;;6.40;4.80;;;28.50;61.20;;;;;;221915;1268;25227;-57
2023/08/17 13:46:33;;;;;;;6.50;5.00;;;28.40;60.80;;;;;;221627;1269;22780;-59
2023/08/17 13:51:36;;;;;;;5.20;4.80;;;28.50;60.80;;;;;;221683;1255;24089;-57
2023/08/17 13:56:38;;;;;;;5.40;4.90;;;28.80;60.70;;;;;;221433;1268;24245;-58
2023/08/17 14:01:42;;;;;;;4.80;4.50;;;28.90;60.30;;;;;;221631;1265;24244;-56
2023/08/17 14:06:45;;;;;;;5.50;5.00;;;28.80;61.00;;;;;;221797;1249;22687;-59
2023/08/17 14:11:47;;;;;;;7.20;5.50;;;28.70;60.70;;;;;;221844;1267;22763;-60
2023/08/17 14:16:50;;;;;;;8.70;6.70;;;28.60;60.70;;;;;;221858;1265;22523;-59
2023/08/17 14:21:53;;;;;;;5.50;4.80;;;28.80;60.40;;;;;;221834;1268;22651;-58
2023/08/17 14:26:58;;;;;;;11.60;7.80;;;28.80;60.40;;;;;;221774;1267;24209;-63
2023/08/17 14:32:03;;;;;;;9.70;6.00;;;28.90;61.40;;;;;;221892;1271;22536;-60
2023/08/17 14:37:06;;;;;;;7.50;5.30;;;28.90;62.70;;;;;;221852;1268;22636;-59
2023/08/17 14:42:08;;;;;;;7.30;5.40;;;28.70;60.80;;;;;;221715;1256;22674;-63
2023/08/17 14:47:11;;;;;;;6.10;5.50;;;28.80;60.70;;;;;;221722;1256;22539;-61
2023/08/17 14:52:15;;;;;;;5.30;4.80;;;28.70;60.50;;;;;;221767;1269;24174;-59
2023/08/17 14:57:18;;;;;;;8.90;5.10;;;28.70;60.80;;;;;;221850;1266;22556;-60
2023/08/17 15:02:21;;;;;;;9.80;5.50;;;28.90;60.30;;;;;;221859;1256;22520;-57
2023/08/17 15:07:24;;;;;;;14.40;8.60;;;28.80;61.30;;;;;;221846;1268;22805;-57
2023/08/17 15:12:27;;;;;;;14.10;7.20;;;28.60;59.20;;;;;;222056;1268;22621;-59
2023/08/17 15:17:30;;;;;;;11.10;6.40;;;28.30;59.50;;;;;;221886;1269;22520;-56
2023/08/17 15:22:33;;;;;;;26.30;9.70;;;28.70;61.00;;;;;;221760;1269;178477;-58
2023/08/17 15:27:36;;;;;;;20.60;8.40;;;28.90;61.60;;;;;;221816;1270;25534;-55
2023/08/17 15:32:39;;;;;;;15.70;7.20;;;29.10;62.10;;;;;;221525;1271;24323;-53
2023/08/17 15:37:42;;;;;;;13.60;6.50;;;29.20;61.70;;;;;;222154;1268;22524;-59
2023/08/17 15:42:45;;;;;;;9.60;5.10;;;28.40;62.00;;;;;;221831;1271;22520;-58
2023/08/17 15:47:48;;;;;;;7.80;4.80;;;27.60;63.30;;;;;;221928;1271;22521;-59
2023/08/17 15:52:51;;;;;;;7.50;4.80;;;27.50;63.80;;;;;;221902;1269;22523;-56
2023/08/17 15:57:54;;;;;;;7.70;4.30;;;27.50;63.90;;;;;;222013;1261;24141;-58
2023/08/17 16:02:58;;;;;;;5.90;4.40;;;27.30;64.20;;;;;;221659;1253;24659;-53
2023/08/17 16:08:01;;;;;;;5.00;4.20;;;27.20;64.30;;;;;;221910;1263;24609;-57
2023/08/17 16:13:04;;;;;;;7.90;4.10;;;26.80;65.60;;;;;;221754;1271;22542;-56
2023/08/17 16:18:07;;;;;;;8.10;5.00;;;26.60;66.90;;;;;;221811;1271;22520;-57
2023/08/17 16:23:10;;;;;;;6.80;4.80;;;26.50;67.20;;;;;;221512;1267;23939;-57
2023/08/17 16:28:13;;;;;;;4.90;4.20;;;26.40;67.30;;;;;;221665;1260;24247;-56
2023/08/17 16:33:16;;;;;;;7.50;4.20;;;26.40;67.70;;;;;;221492;1264;24374;-59
2023/08/17 16:38:21;;;;;;;5.60;4.00;;;26.20;68.10;;;;;;221756;1271;24487;-62
2023/08/17 16:43:25;;;;;;;5.80;3.40;;;26.10;68.40;;;;;;221976;1270;24100;-63
2023/08/17 16:48:28;;;;;;;4.60;3.80;;;26.10;67.90;;;;;;222226;1268;22540;-61
2023/08/17 16:53:32;;;;;;;4.20;3.70;;;26.20;68.20;;;;;;221783;1266;22677;-61
2023/08/17 16:58:35;;;;;;;4.80;4.00;;;26.40;67.50;;;;;;221718;1269;22643;-58
2023/08/17 17:03:39;;;;;;;3.90;3.60;;;26.40;67.90;;;;;;222174;1269;25396;-58
2023/08/17 17:08:45;;;;;;;4.60;4.00;;;26.50;67.30;;;;;;221710;1263;25364;-58
2023/08/17 17:13:48;;;;;;;8.90;3.90;;;26.70;67.10;;;;;;221683;1265;24337;-57
2023/08/17 17:18:52;;;;;;;5.90;3.70;;;26.80;67.50;;;;;;221761;1271;22680;-59
2023/08/17 17:23:55;;;;;;;7.10;4.20;;;26.90;67.10;;;;;;222066;1270;24229;-57
2023/08/17 17:28:59;;;;;;;5.50;3.80;;;26.90;67.30;;;;;;221972;1268;24232;-56
2023/08/17 17:34:04;;;;;;;4.00;3.60;;;26.80;67.20;;;;;;222090;1265;22583;-59
2023/08/17 17:39:07;;;;;;;4.80;4.30;;;26.90;67.30;;;;;;222154;1264;25238;-58
2023/08/17 17:44:10;;;;;;;17.90;4.70;;;26.90;66.70;;;;;;221828;1264;24226;-58
2023/08/17 17:49:13;;;;;;;8.90;4.70;;;26.90;66.60;;;;;;221963;1270;22524;-58
2023/08/17 17:54:17;;;;;;;7.10;4.80;;;27.00;66.00;;;;;;221721;1260;22525;-63
2023/08/17 17:59:22;;;;;;;7.10;5.00;;;26.90;66.00;;;;;;221943;1267;22702;-58
2023/08/17 18:04:27;;;;;;;5.50;3.90;;;26.80;67.20;;;;;;224479;1271;22604;-57
2023/08/17 18:09:34;;;;;;;4.30;3.90;;;26.80;66.30;;;;;;221893;1264;22523;-58
2023/08/17 18:14:43;;;;;;;4.60;4.20;;;26.30;67.90;;;;;;221873;1264;25442;-59
2023/08/17 18:19:47;;;;;;;7.60;4.70;;;25.90;69.30;;;;;;221999;1271;27537;-57
2023/08/17 18:24:52;;;;;;;6.10;4.90;;;25.90;70.30;;;;;;221871;1264;22525;-57
2023/08/17 18:29:56;;;;;;;9.80;5.00;;;26.10;69.90;;;;;;222045;1269;25209;-58
2023/08/17 18:35:03;;;;;;;11.40;5.00;;;26.20;69.20;;;;;;221889;1264;26653;-54
2023/08/17 18:40:09;;;;;;;5.30;4.60;;;26.20;69.00;;;;;;222266;1253;24250;-55
2023/08/17 18:45:19;;;;;;;5.50;4.90;;;26.20;69.20;;;;;;222066;1255;24340;-54
2023/08/17 18:50:26;;;;;;;8.40;5.40;;;26.10;69.40;;;;;;222257;1264;22957;-54
2023/08/17 18:55:31;;;;;;;5.10;4.30;;;26.10;69.30;;;;;;222302;1269;24269;-56
2023/08/17 19:00:35;;;;;;;12.80;6.10;;;26.10;69.30;;;;;;222712;1267;22866;-53
2023/08/17 19:05:39;;;;;;;7.30;5.00;;;26.20;69.70;;;;;;226883;1264;22922;-51
2023/08/17 19:10:47;;;;;;;11.90;5.40;;;26.30;69.50;;;;;;227750;1268;22514;-56
2023/08/17 19:15:51;;;;;;;18.20;5.40;;;26.40;68.80;;;;;;227752;1248;22548;-57
2023/08/17 19:20:55;;;;;;;8.50;5.50;;;26.40;68.60;;;;;;227592;1269;22581;-54
2023/08/17 19:26:02;;;;;;;8.70;4.70;;;26.50;68.40;;;;;;227551;1257;24356;-54
2023/08/17 19:31:08;;;;;;;5.40;4.80;;;26.50;68.80;;;;;;227631;1264;22584;-54
2023/08/17 19:36:13;;;;;;;9.10;5.50;;;26.50;68.20;;;;;;224266;1270;24254;-58
2023/08/17 19:41:17;;;;;;;8.00;4.90;;;26.60;68.10;;;;;;222014;1257;22520;-53
2023/08/17 19:46:21;;;;;;;8.60;5.00;;;26.40;68.50;;;;;;222062;1257;24449;-59
2023/08/17 19:51:26;;;;;;;9.10;4.70;;;26.30;62.70;;;;;;221942;1267;22535;-48
2023/08/17 19:56:32;;;;;;;7.60;4.60;;;25.90;61.00;;;;;;221755;1267;22615;-53
2023/08/17 20:01:37;;;;;;;11.20;4.70;;;25.70;59.90;;;;;;221895;1266;25407;-49
2023/08/17 20:06:45;;;;;;;8.70;4.30;;;25.40;56.80;;;;;;221847;1266;22612;-49
2023/08/17 20:11:54;;;;;;;8.40;4.90;;;25.30;59.30;;;;;;221983;1260;24698;-53
2023/08/17 20:16:58;;;;;;;6.20;4.10;;;25.00;56.10;;;;;;221973;1257;25536;-49
2023/08/17 20:22:23;;;;;;;5.60;4.40;;;24.90;53.90;;;;;;221839;1269;24237;-52
2023/08/17 20:27:28;;;;;;;5.10;4.60;;;24.70;52.80;;;;;;222089;1265;25138;-51
2023/08/17 20:32:35;;;;;;;5.10;4.60;;;24.70;53.00;;;;;;222098;1264;25498;-49
2023/08/17 20:37:39;;;;;;;6.10;4.70;;;24.50;52.20;;;;;;222009;1263;24212;-48
2023/08/17 20:42:43;;;;;;;4.70;4.20;;;25.00;54.80;;;;;;222045;1257;22523;-49
2023/08/17 20:47:47;;;;;;;8.30;4.80;;;25.50;53.50;;;;;;221944;1264;24248;-49
2023/08/17 20:52:50;;;;;;;6.00;4.50;;;25.90;55.40;;;;;;221981;1264;22825;-50
2023/08/17 20:57:53;;;;;;;5.40;4.50;;;26.00;55.90;;;;;;221926;1264;22543;-50
2023/08/17 21:02:57;;;;;;;5.20;4.80;;;26.20;56.60;;;;;;221944;1264;25360;-50
2023/08/17 21:08:01;;;;;;;6.60;4.60;;;26.10;57.20;;;;;;222012;1264;25480;-49
2023/08/17 21:13:04;;;;;;;7.00;5.20;;;26.20;57.80;;;;;;222116;1264;22573;-60
2023/08/17 21:18:07;;;;;;;7.40;4.80;;;26.20;58.50;;;;;;221913;1264;22521;-54
2023/08/17 21:23:11;;;;;;;8.30;6.00;;;26.20;59.30;;;;;;221846;1270;24671;-51
2023/08/17 21:28:14;;;;;;;6.50;5.70;;;26.10;60.10;;;;;;221922;1264;22524;-49
2023/08/17 21:33:16;;;;;;;17.80;7.50;;;26.10;62.20;;;;;;221886;1270;22522;-52
2023/08/17 21:38:19;;;;;;;13.00;7.10;;;26.30;64.70;;;;;;221852;1264;22775;-50
2023/08/17 21:43:22;;;;;;;14.60;7.30;;;26.30;65.00;;;;;;221926;1263;22647;-50
2023/08/17 21:48:25;;;;;;;11.10;6.50;;;26.30;65.50;;;;;;221876;1267;24199;-49
2023/08/17 21:53:28;;;;;;;8.70;5.70;;;26.30;65.70;;;;;;221772;1264;22555;-53
2023/08/17 21:58:31;;;;;;;5.90;5.40;;;26.40;66.30;;;;;;221954;1259;24207;-52
2023/08/17 22:03:34;;;;;;;5.80;5.30;;;26.40;66.00;;;;;;221797;1264;22645;-53
2023/08/17 22:08:37;;;;;;;5.90;5.40;;;26.40;65.90;;;;;;221997;1264;25017;-52
2023/08/17 22:13:39;;;;;;;8.50;5.90;;;26.40;66.10;;;;;;222088;1271;22527;-51
2023/08/17 22:18:42;;;;;;;6.30;5.70;;;26.50;65.80;;;;;;221635;1255;22597;-50
2023/08/17 22:23:46;;;;;;;6.00;5.20;;;26.40;66.10;;;;;;221870;1263;25122;-52
2023/08/17 22:28:49;;;;;;;7.40;5.70;;;26.40;66.10;;;;;;222140;1266;25347;-51
2023/08/17 22:33:51;;;;;;;6.90;5.80;;;26.40;65.90;;;;;;221966;1260;23189;-54
2023/08/17 22:38:55;;;;;;;7.10;5.40;;;26.40;65.50;;;;;;222195;1256;22574;-49
2023/08/17 22:43:58;;;;;;;7.50;4.70;;;26.40;66.10;;;;;;221887;1257;22538;-53
2023/08/17 22:49:01;;;;;;;7.00;4.90;;;26.50;66.10;;;;;;221751;1259;24247;-52
2023/08/17 22:54:08;;;;;;;5.90;5.30;;;26.50;66.10;;;;;;221956;1269;22650;-52
2023/08/17 22:59:11;;;;;;;5.70;5.30;;;26.50;66.10;;;;;;222227;1264;24303;-52
2023/08/17 23:04:14;;;;;;;5.40;4.90;;;26.50;65.90;;;;;;222015;1263;22546;-52
2023/08/17 23:09:17;;;;;;;5.90;5.50;;;26.50;65.90;;;;;;222030;1264;22629;-53
2023/08/17 23:14:21;;;;;;;5.50;5.00;;;26.50;65.60;;;;;;221882;1266;22517;-51
2023/08/17 23:19:24;;;;;;;4.70;4.30;;;26.50;65.30;;;;;;222124;1258;22637;-48
2023/08/17 23:24:28;;;;;;;5.40;4.90;;;26.40;66.00;;;;;;221901;1266;22542;-51
2023/08/17 23:29:32;;;;;;;5.80;5.20;;;26.40;65.50;;;;;;221834;1262;22520;-52
2023/08/17 23:34:35;;;;;;;7.10;4.90;;;26.40;65.60;;;;;;221974;1256;25607;-48
2023/08/17 23:39:39;;;;;;;8.20;5.30;;;26.40;65.50;;;;;;222071;1263;24234;-51
2023/08/17 23:44:42;;;;;;;4.90;4.30;;;26.40;65.50;;;;;;222220;1255;22521;-51
2023/08/17 23:49:46;;;;;;;7.30;4.70;;;26.40;66.30;;;;;;221926;1263;24237;-48
2023/08/17 23:54:51;;;;;;;5.10;4.70;;;26.40;65.70;;;;;;222040;1263;24082;-52
2023/08/17 23:59:56;;;;;;;5.40;5.00;;;26.40;65.50;;;;;;221839;1263;24200;-50
